Airfield :
LOGIN :

Register | Disclaimer

   EN    FR    IT 

 










Legend :    VFR   Marginal VFR   IFR   Intensive IFR   Very Intensive IFR
Visi :
Ceiling :
>= 8 km
>= 3000ft
5 to 8 km
1000 to 3000 ft
1500m to 5 km
500 to 1000 ft
800 to 1500m
200 to 500 ft
< 800m
< 200 ft
Symbols :   Thunderstorms  Fog  Heavy snow  Heavy precipitations  Wind > 20 kt
SIGMETs :     Misc.  Thunderstorms  Icing  Turbulence  Mountain Waves  Volcanic Ashes







- Airport Elevation : 681 ft
- IATA code : LBA
- Download approach charts


EGNM - Leeds Bradford

CURRENT METAR :
  • 171820Z 30009KT CAVOK M01/M04 Q1016

EXPIRED METARs :
  • 171750Z 27007KT CAVOK M00/M04 Q1015
  • 171720Z 29010KT CAVOK 01/M04 Q1015
  • 171650Z 28009KT CAVOK 01/M04 Q1015
  • 171620Z 27008KT CAVOK 00/M04 Q1015
  • 171550Z 30012KT 9999 FEW038 01/M04 Q1014

TAF TAF EGNM
Valid from the 17 at 18:00 until the 18 at 18:00 UTC


171658Z 1718/1818 29013KT 9999 FEW030
BECMG 1718/1721 27003KT
BECMG 1807/1810 13010KT
BECMG 1813/1816 BKN010
TEMPO 1813/1818 4000 -RASN BKN005
PROB40
TEMPO 1813/1817 1200 SN BKN003
ATIS : +44 113 250 9696 (x2489)
No reported NOTAMs for that airfield.



MET'MAP, your aeronautical weather chart ! - Copyright ORBIFLY December 2007 - Disclaimer

ORBIFLY MET'MAP TEAM :

Programming & Development : Alexandra Zaïnal
Concept & Development : Baudouin d'Aumeries
Co-Development & Prog : Marc-Olivier Méhu
Technical & hardware support : Manuel Goepfert

Contact : metmap@orbifly.com




SOURCES & CREDITS :

   NOAA